sensor_id;sensor_type;location;lat;lon;timestamp;temperature;humidity
3648;DHT22;1840;48.892;15.312;2024-03-22T00:02:17;7.50;99.90
3648;DHT22;1840;48.892;15.312;2024-03-22T00:04:44;7.50;99.90
3648;DHT22;1840;48.892;15.312;2024-03-22T00:07:11;7.60;99.90
3648;DHT22;1840;48.892;15.312;2024-03-22T00:09:37;7.80;99.90
3648;DHT22;1840;48.892;15.312;2024-03-22T00:12:05;7.50;99.90
3648;DHT22;1840;48.892;15.312;2024-03-22T00:14:31;7.40;99.90
3648;DHT22;1840;48.892;15.312;2024-03-22T00:16:59;7.50;99.90
3648;DHT22;1840;48.892;15.312;2024-03-22T00:19:27;7.40;99.90
3648;DHT22;1840;48.892;15.312;2024-03-22T00:21:54;7.30;99.90
3648;DHT22;1840;48.892;15.312;2024-03-22T00:24:20;7.10;99.90
3648;DHT22;1840;48.892;15.312;2024-03-22T00:26:47;6.90;99.90
3648;DHT22;1840;48.892;15.312;2024-03-22T00:29:14;7.00;99.90
3648;DHT22;1840;48.892;15.312;2024-03-22T00:31:41;7.10;99.90
3648;DHT22;1840;48.892;15.312;2024-03-22T00:34:07;7.00;99.90
3648;DHT22;1840;48.892;15.312;2024-03-22T00:36:36;7.20;99.90
3648;DHT22;1840;48.892;15.312;2024-03-22T00:39:02;7.10;99.90
3648;DHT22;1840;48.892;15.312;2024-03-22T00:41:31;7.20;99.90
3648;DHT22;1840;48.892;15.312;2024-03-22T00:43:57;7.30;99.90
3648;DHT22;1840;48.892;15.312;2024-03-22T00:46:25;7.30;99.90
3648;DHT22;1840;48.892;15.312;2024-03-22T00:48:51;7.30;99.90
3648;DHT22;1840;48.892;15.312;2024-03-22T00:51:18;7.20;99.90
3648;DHT22;1840;48.892;15.312;2024-03-22T00:53:45;7.30;99.90
3648;DHT22;1840;48.892;15.312;2024-03-22T00:56:13;7.20;99.90
3648;DHT22;1840;48.892;15.312;2024-03-22T00:58:40;7.20;99.90
3648;DHT22;1840;48.892;15.312;2024-03-22T01:01:07;7.30;99.90
3648;DHT22;1840;48.892;15.312;2024-03-22T01:03:33;7.40;99.90
3648;DHT22;1840;48.892;15.312;2024-03-22T01:06:00;7.30;99.90
3648;DHT22;1840;48.892;15.312;2024-03-22T01:08:27;7.30;99.90
3648;DHT22;1840;48.892;15.312;2024-03-22T01:10:55;7.10;99.90
3648;DHT22;1840;48.892;15.312;2024-03-22T01:13:21;6.90;99.90
3648;DHT22;1840;48.892;15.312;2024-03-22T01:15:48;6.80;99.90
3648;DHT22;1840;48.892;15.312;2024-03-22T01:18:15;6.80;99.90
3648;DHT22;1840;48.892;15.312;2024-03-22T01:20:43;6.80;99.90
3648;DHT22;1840;48.892;15.312;2024-03-22T01:23:09;7.10;99.90
3648;DHT22;1840;48.892;15.312;2024-03-22T01:25:36;7.10;99.90
3648;DHT22;1840;48.892;15.312;2024-03-22T01:28:04;6.90;99.90
3648;DHT22;1840;48.892;15.312;2024-03-22T01:30:32;6.80;99.90
3648;DHT22;1840;48.892;15.312;2024-03-22T01:33:00;6.70;99.90
3648;DHT22;1840;48.892;15.312;2024-03-22T01:35:27;6.80;99.90
3648;DHT22;1840;48.892;15.312;2024-03-22T01:37:53;6.80;99.90
3648;DHT22;1840;48.892;15.312;2024-03-22T01:40:21;6.90;99.90
3648;DHT22;1840;48.892;15.312;2024-03-22T01:42:47;6.80;99.90
3648;DHT22;1840;48.892;15.312;2024-03-22T01:45:16;6.70;99.90
3648;DHT22;1840;48.892;15.312;2024-03-22T01:47:42;6.70;99.90
3648;DHT22;1840;48.892;15.312;2024-03-22T01:50:09;6.70;99.90
3648;DHT22;1840;48.892;15.312;2024-03-22T01:52:38;6.90;99.90
3648;DHT22;1840;48.892;15.312;2024-03-22T01:55:07;7.10;99.90
3648;DHT22;1840;48.892;15.312;2024-03-22T01:57:34;7.00;99.90
3648;DHT22;1840;48.892;15.312;2024-03-22T02:00:02;7.00;99.90
3648;DHT22;1840;48.892;15.312;2024-03-22T02:02:31;7.10;99.90
3648;DHT22;1840;48.892;15.312;2024-03-22T02:04:58;7.10;99.90
3648;DHT22;1840;48.892;15.312;2024-03-22T02:07:24;7.00;99.90
3648;DHT22;1840;48.892;15.312;2024-03-22T02:09:54;6.90;99.90
3648;DHT22;1840;48.892;15.312;2024-03-22T02:12:20;6.90;99.90
3648;DHT22;1840;48.892;15.312;2024-03-22T02:14:47;6.90;99.90
3648;DHT22;1840;48.892;15.312;2024-03-22T02:17:14;7.00;99.90
3648;DHT22;1840;48.892;15.312;2024-03-22T02:19:42;7.10;99.90
3648;DHT22;1840;48.892;15.312;2024-03-22T02:22:08;6.80;99.90
3648;DHT22;1840;48.892;15.312;2024-03-22T02:24:37;6.70;99.90
3648;DHT22;1840;48.892;15.312;2024-03-22T02:27:03;6.60;99.90
3648;DHT22;1840;48.892;15.312;2024-03-22T02:29:30;6.70;99.90
3648;DHT22;1840;48.892;15.312;2024-03-22T02:31:57;6.80;99.90
3648;DHT22;1840;48.892;15.312;2024-03-22T02:34:24;6.80;99.90
3648;DHT22;1840;48.892;15.312;2024-03-22T02:36:50;6.80;99.90
3648;DHT22;1840;48.892;15.312;2024-03-22T02:39:17;6.90;99.90
3648;DHT22;1840;48.892;15.312;2024-03-22T02:41:45;6.80;99.90
3648;DHT22;1840;48.892;15.312;2024-03-22T02:44:12;6.70;99.90
3648;DHT22;1840;48.892;15.312;2024-03-22T02:46:38;6.50;99.90
3648;DHT22;1840;48.892;15.312;2024-03-22T02:49:05;6.40;99.90
3648;DHT22;1840;48.892;15.312;2024-03-22T02:51:32;6.60;99.90
3648;DHT22;1840;48.892;15.312;2024-03-22T02:53:59;6.60;99.90
3648;DHT22;1840;48.892;15.312;2024-03-22T02:56:25;6.50;99.90
3648;DHT22;1840;48.892;15.312;2024-03-22T02:58:54;6.50;99.90
3648;DHT22;1840;48.892;15.312;2024-03-22T03:01:20;6.40;99.90
3648;DHT22;1840;48.892;15.312;2024-03-22T03:03:48;6.30;99.90
3648;DHT22;1840;48.892;15.312;2024-03-22T03:06:14;6.30;99.90
3648;DHT22;1840;48.892;15.312;2024-03-22T03:08:43;6.30;99.90
3648;DHT22;1840;48.892;15.312;2024-03-22T03:11:09;6.10;99.90
3648;DHT22;1840;48.892;15.312;2024-03-22T03:13:36;6.00;99.90
3648;DHT22;1840;48.892;15.312;2024-03-22T03:16:04;6.10;99.90
3648;DHT22;1840;48.892;15.312;2024-03-22T03:18:32;6.10;99.90
3648;DHT22;1840;48.892;15.312;2024-03-22T03:20:58;5.90;99.90
3648;DHT22;1840;48.892;15.312;2024-03-22T03:23:25;5.80;99.90
3648;DHT22;1840;48.892;15.312;2024-03-22T03:25:51;5.80;99.90
3648;DHT22;1840;48.892;15.312;2024-03-22T03:28:19;5.90;99.90
3648;DHT22;1840;48.892;15.312;2024-03-22T03:30:45;5.80;99.90
3648;DHT22;1840;48.892;15.312;2024-03-22T03:33:13;5.60;99.90
3648;DHT22;1840;48.892;15.312;2024-03-22T03:35:40;5.50;99.90
3648;DHT22;1840;48.892;15.312;2024-03-22T03:38:07;5.50;99.90
3648;DHT22;1840;48.892;15.312;2024-03-22T03:40:33;5.40;99.90
3648;DHT22;1840;48.892;15.312;2024-03-22T03:43:01;5.40;99.90
3648;DHT22;1840;48.892;15.312;2024-03-22T03:45:28;5.20;99.90
3648;DHT22;1840;48.892;15.312;2024-03-22T03:47:55;5.10;99.90
3648;DHT22;1840;48.892;15.312;2024-03-22T03:50:22;4.90;99.90
3648;DHT22;1840;48.892;15.312;2024-03-22T03:52:50;4.90;99.90
3648;DHT22;1840;48.892;15.312;2024-03-22T03:55:16;4.80;99.90
3648;DHT22;1840;48.892;15.312;2024-03-22T03:57:43;4.70;99.90
3648;DHT22;1840;48.892;15.312;2024-03-22T04:00:10;4.70;99.90
3648;DHT22;1840;48.892;15.312;2024-03-22T04:02:37;4.80;99.90
3648;DHT22;1840;48.892;15.312;2024-03-22T04:05:04;4.70;99.90
3648;DHT22;1840;48.892;15.312;2024-03-22T04:07:33;4.60;99.90
3648;DHT22;1840;48.892;15.312;2024-03-22T04:09:59;4.60;99.90
3648;DHT22;1840;48.892;15.312;2024-03-22T04:12:27;4.60;99.90
3648;DHT22;1840;48.892;15.312;2024-03-22T04:14:53;4.70;99.90
3648;DHT22;1840;48.892;15.312;2024-03-22T04:17:20;4.70;99.90
3648;DHT22;1840;48.892;15.312;2024-03-22T04:19:49;4.70;99.90
3648;DHT22;1840;48.892;15.312;2024-03-22T04:22:17;4.90;99.90
3648;DHT22;1840;48.892;15.312;2024-03-22T04:24:45;4.90;99.90
3648;DHT22;1840;48.892;15.312;2024-03-22T04:27:13;4.90;99.90
3648;DHT22;1840;48.892;15.312;2024-03-22T04:29:39;4.90;99.90
3648;DHT22;1840;48.892;15.312;2024-03-22T04:32:07;4.90;99.90
3648;DHT22;1840;48.892;15.312;2024-03-22T04:34:33;5.00;99.90
3648;DHT22;1840;48.892;15.312;2024-03-22T04:37:01;5.10;99.90
3648;DHT22;1840;48.892;15.312;2024-03-22T04:39:29;5.10;99.90
3648;DHT22;1840;48.892;15.312;2024-03-22T04:41:57;5.10;99.90
3648;DHT22;1840;48.892;15.312;2024-03-22T04:44:24;5.10;99.90
3648;DHT22;1840;48.892;15.312;2024-03-22T04:46:51;5.20;99.90
3648;DHT22;1840;48.892;15.312;2024-03-22T04:49:18;5.10;99.90
3648;DHT22;1840;48.892;15.312;2024-03-22T04:51:46;5.20;99.90
3648;DHT22;1840;48.892;15.312;2024-03-22T04:54:13;5.20;99.90
3648;DHT22;1840;48.892;15.312;2024-03-22T04:56:41;5.30;99.90
3648;DHT22;1840;48.892;15.312;2024-03-22T04:59:09;5.40;99.90
3648;DHT22;1840;48.892;15.312;2024-03-22T05:01:38;5.20;99.90
3648;DHT22;1840;48.892;15.312;2024-03-22T05:04:07;5.30;99.90
3648;DHT22;1840;48.892;15.312;2024-03-22T05:06:34;5.40;99.90
3648;DHT22;1840;48.892;15.312;2024-03-22T05:09:00;5.30;99.90
3648;DHT22;1840;48.892;15.312;2024-03-22T05:11:29;5.20;99.90
3648;DHT22;1840;48.892;15.312;2024-03-22T05:13:57;5.30;99.90
3648;DHT22;1840;48.892;15.312;2024-03-22T05:16:25;5.30;99.90
3648;DHT22;1840;48.892;15.312;2024-03-22T05:18:51;5.30;99.90
3648;DHT22;1840;48.892;15.312;2024-03-22T05:21:19;5.20;99.90
3648;DHT22;1840;48.892;15.312;2024-03-22T05:23:46;5.40;99.90
3648;DHT22;1840;48.892;15.312;2024-03-22T05:26:13;5.50;99.90
3648;DHT22;1840;48.892;15.312;2024-03-22T05:28:39;5.50;99.90
